Time;durP1;ratioP1;P1;durP2;ratioP2;P2;SDS_P1;SDS_P2;PMS_P1;PMS_P2;Temp;Humidity;BMP_temperature;BMP_pressure;BME280_temperature;BME280_humidity;BME280_pressure;Samples;Min_cycle;Max_cycle;Signal;HPM_P1;HPM_P2
2021/05/02 00:00:01;;;;;;;13.10;7.55;;;9.10;99.90;;;;;;5047062;28;20198;-74
2021/05/02 00:02:28;;;;;;;11.45;7.68;;;9.00;99.90;;;;;;5053874;28;20202;-74
2021/05/02 00:04:55;;;;;;;12.05;8.05;;;8.90;99.90;;;;;;5057684;28;20235;-74
2021/05/02 00:07:22;;;;;;;14.27;9.68;;;8.90;99.90;;;;;;5053898;28;20566;-74
2021/05/02 00:09:48;;;;;;;13.55;9.02;;;8.80;99.90;;;;;;5050161;28;20216;-74
2021/05/02 00:12:15;;;;;;;13.75;9.57;;;8.80;99.90;;;;;;5045283;28;20206;-74
2021/05/02 00:14:41;;;;;;;15.50;9.95;;;8.80;99.90;;;;;;5053999;28;20224;-74
2021/05/02 00:17:08;;;;;;;17.50;10.40;;;8.70;99.90;;;;;;5047681;28;20213;-74
2021/05/02 00:19:34;;;;;;;21.35;10.50;;;8.60;99.90;;;;;;5036066;28;20661;-74
2021/05/02 00:22:02;;;;;;;21.23;10.85;;;8.60;99.90;;;;;;5036317;28;20202;-74
2021/05/02 00:24:28;;;;;;;15.60;10.57;;;8.60;99.90;;;;;;5028361;28;20233;-74
2021/05/02 00:26:55;;;;;;;17.45;10.75;;;8.60;99.90;;;;;;5033929;28;20212;-74
2021/05/02 00:29:22;;;;;;;16.33;10.52;;;8.60;99.90;;;;;;5038922;28;20656;-74
2021/05/02 00:31:50;;;;;;;17.25;11.20;;;8.50;99.90;;;;;;5037220;28;20206;-74
2021/05/02 00:34:17;;;;;;;17.77;12.23;;;8.50;99.90;;;;;;5046080;28;20294;-74
2021/05/02 00:36:43;;;;;;;20.17;11.73;;;8.50;99.90;;;;;;5039669;28;20236;-74
2021/05/02 00:39:11;;;;;;;19.35;11.70;;;8.60;99.90;;;;;;5045866;28;20202;-74
2021/05/02 00:41:41;;;;;;;19.65;11.88;;;8.50;99.90;;;;;;5041999;28;20209;-75
2021/05/02 00:44:13;;;;;;;18.73;11.55;;;8.60;99.90;;;;;;5035233;28;20226;-74
2021/05/02 00:46:49;;;;;;;22.45;11.63;;;8.70;99.90;;;;;;5032970;28;20703;-74
2021/05/02 00:49:20;;;;;;;16.50;11.45;;;8.70;99.90;;;;;;5038959;28;20210;-74
2021/05/02 00:51:54;;;;;;;15.80;10.82;;;8.70;99.90;;;;;;5030200;28;21158;-74
2021/05/02 00:54:33;;;;;;;17.10;11.88;;;8.60;99.90;;;;;;5040102;28;20734;-74
2021/05/02 00:57:01;;;;;;;15.93;10.50;;;8.60;99.90;;;;;;5033305;28;20213;-74
2021/05/02 00:59:44;;;;;;;14.90;10.13;;;8.60;99.90;;;;;;5033615;28;20199;-74
2021/05/02 01:02:13;;;;;;;16.20;11.23;;;8.50;99.90;;;;;;5037741;28;20208;-75
2021/05/02 01:04:42;;;;;;;19.70;12.30;;;8.50;99.90;;;;;;5034414;28;20242;-75
2021/05/02 01:07:16;;;;;;;18.20;12.35;;;8.40;99.90;;;;;;5034098;28;20262;-74
2021/05/02 01:09:43;;;;;;;18.70;11.85;;;8.40;99.90;;;;;;5032798;28;20202;-75
2021/05/02 01:12:12;;;;;;;23.08;12.95;;;8.40;99.90;;;;;;5034003;28;20225;-75
2021/05/02 01:14:44;;;;;;;17.88;11.95;;;8.40;99.90;;;;;;5037566;28;20228;-75
2021/05/02 01:17:13;;;;;;;19.52;13.18;;;8.40;99.90;;;;;;5034083;28;20550;-75
2021/05/02 01:19:40;;;;;;;27.08;14.48;;;8.30;99.90;;;;;;5034697;28;20573;-75
2021/05/02 01:22:13;;;;;;;25.13;13.75;;;8.30;99.90;;;;;;5034331;28;20214;-75
2021/05/02 01:24:44;;;;;;;23.17;13.02;;;8.30;99.90;;;;;;5037092;28;20257;-75
2021/05/02 01:27:16;;;;;;;18.13;12.25;;;8.30;99.90;;;;;;5033422;28;20626;-75
2021/05/02 01:29:42;;;;;;;18.13;12.20;;;8.30;99.90;;;;;;5032306;28;20209;-75
2021/05/02 01:32:09;;;;;;;22.10;12.65;;;8.30;99.90;;;;;;5041784;28;20233;-76
2021/05/02 01:34:36;;;;;;;19.88;12.60;;;8.30;99.90;;;;;;5032284;28;20225;-75
2021/05/02 01:37:02;;;;;;;18.30;11.18;;;8.30;99.90;;;;;;5038674;28;20209;-75
2021/05/02 01:39:30;;;;;;;20.17;12.02;;;8.20;99.90;;;;;;5041429;28;20642;-75
2021/05/02 01:41:57;;;;;;;21.73;14.00;;;8.20;99.90;;;;;;5034245;28;20212;-76
2021/05/02 01:44:23;;;;;;;23.60;13.30;;;8.20;99.90;;;;;;5056170;28;20205;-75
2021/05/02 01:46:51;;;;;;;23.15;12.68;;;8.10;99.90;;;;;;5039074;28;20565;-75
2021/05/02 01:49:21;;;;;;;28.27;14.07;;;8.10;99.90;;;;;;5027432;28;20210;-75
2021/05/02 01:51:48;;;;;;;17.70;12.27;;;8.10;99.90;;;;;;5034541;28;20219;-75
2021/05/02 01:54:15;;;;;;;22.33;14.13;;;8.10;99.90;;;;;;5035383;28;20268;-75
2021/05/02 01:56:42;;;;;;;21.27;13.15;;;8.10;99.90;;;;;;5044403;28;20209;-75
2021/05/02 01:59:12;;;;;;;19.60;13.63;;;8.00;99.90;;;;;;5031231;28;20201;-75
2021/05/02 02:01:39;;;;;;;19.35;11.98;;;8.00;99.90;;;;;;5032280;28;20233;-75
2021/05/02 02:04:07;;;;;;;19.75;13.70;;;7.90;99.90;;;;;;5032658;28;20629;-75
2021/05/02 02:06:34;;;;;;;25.77;14.32;;;7.90;99.90;;;;;;5036797;28;20273;-75
2021/05/02 02:09:06;;;;;;;17.92;11.98;;;8.00;99.90;;;;;;5047502;28;20209;-75
2021/05/02 02:11:32;;;;;;;21.42;13.52;;;8.00;99.90;;;;;;5031473;28;20215;-75
2021/05/02 02:13:59;;;;;;;19.70;12.32;;;8.00;99.90;;;;;;5038647;28;20239;-75
2021/05/02 02:16:27;;;;;;;22.52;14.07;;;8.00;99.90;;;;;;5038795;28;20209;-75
2021/05/02 02:18:54;;;;;;;21.80;13.90;;;8.00;99.90;;;;;;5044269;28;20198;-75
2021/05/02 02:21:23;;;;;;;22.25;13.75;;;8.00;99.90;;;;;;5044258;28;20212;-76
2021/05/02 02:23:53;;;;;;;21.58;12.38;;;8.00;99.90;;;;;;5038807;28;20252;-75
2021/05/02 02:26:27;;;;;;;23.60;13.27;;;8.10;99.90;;;;;;5034502;28;20225;-75
2021/05/02 02:28:54;;;;;;;20.92;12.63;;;8.20;99.90;;;;;;5031418;28;20214;-76
2021/05/02 02:31:21;;;;;;;21.27;13.38;;;8.20;99.90;;;;;;5026780;28;20223;-77
2021/05/02 02:33:50;;;;;;;19.48;13.05;;;8.20;99.90;;;;;;5031957;28;20224;-76
2021/05/02 02:36:17;;;;;;;24.13;13.60;;;8.20;99.90;;;;;;5030887;28;20283;-76
2021/05/02 02:38:45;;;;;;;22.45;14.18;;;8.20;99.90;;;;;;5038159;28;20252;-76
2021/05/02 02:41:14;;;;;;;19.40;12.85;;;8.30;99.90;;;;;;5034979;28;20211;-77
2021/05/02 02:43:48;;;;;;;19.52;13.05;;;8.40;99.90;;;;;;5036475;28;20294;-76
2021/05/02 02:46:18;;;;;;;19.48;12.73;;;8.40;99.90;;;;;;5035063;28;20264;-77
2021/05/02 02:48:47;;;;;;;20.27;12.85;;;8.40;99.90;;;;;;5036018;28;20233;-76
2021/05/02 02:51:17;;;;;;;30.08;15.15;;;8.50;99.90;;;;;;5036934;28;20205;-77
2021/05/02 02:53:44;;;;;;;20.27;13.95;;;8.50;99.90;;;;;;5044502;28;20200;-77
2021/05/02 02:56:14;;;;;;;21.38;14.32;;;8.40;99.90;;;;;;5036030;28;20203;-77
2021/05/02 02:58:44;;;;;;;20.70;13.75;;;8.40;99.90;;;;;;5042472;28;20215;-76
2021/05/02 03:01:11;;;;;;;23.52;15.48;;;8.30;99.90;;;;;;5035426;28;20265;-76
2021/05/02 03:03:42;;;;;;;23.75;14.95;;;8.30;99.90;;;;;;5034825;28;20645;-76
2021/05/02 03:06:09;;;;;;;21.15;13.85;;;8.30;99.90;;;;;;5042459;28;20233;-75
2021/05/02 03:08:38;;;;;;;24.60;14.68;;;8.20;99.90;;;;;;5031653;28;20654;-75
2021/05/02 03:11:05;;;;;;;24.38;15.27;;;8.30;99.90;;;;;;5040402;28;20205;-75
2021/05/02 03:13:32;;;;;;;21.77;14.40;;;8.20;99.90;;;;;;5041088;28;20205;-76
2021/05/02 03:16:00;;;;;;;28.55;16.85;;;8.20;99.90;;;;;;5047103;28;20210;-76
2021/05/02 03:18:28;;;;;;;28.55;16.70;;;8.20;99.90;;;;;;5029877;28;20584;-75
2021/05/02 03:21:02;;;;;;;23.40;15.82;;;8.30;99.90;;;;;;5034142;28;20685;-75
2021/05/02 03:23:34;;;;;;;38.75;15.60;;;8.30;99.90;;;;;;5041381;28;20213;-75
2021/05/02 03:26:05;;;;;;;23.52;15.20;;;8.40;99.90;;;;;;5040166;28;20234;-76
2021/05/02 03:28:35;;;;;;;25.00;15.10;;;8.40;99.90;;;;;;5029606;28;20199;-76
2021/05/02 03:31:04;;;;;;;29.00;15.30;;;8.40;99.90;;;;;;5039315;28;20207;-77
2021/05/02 03:33:35;;;;;;;27.65;15.75;;;8.30;99.90;;;;;;5030456;28;20575;-77
2021/05/02 03:36:09;;;;;;;24.13;15.38;;;8.30;99.90;;;;;;5029960;28;20207;-77
2021/05/02 03:38:45;;;;;;;26.75;15.82;;;8.30;99.90;;;;;;5042385;28;20680;-77
2021/05/02 03:41:13;;;;;;;24.98;15.80;;;8.30;99.90;;;;;;5045312;28;20205;-75
2021/05/02 03:43:40;;;;;;;26.05;16.42;;;8.30;99.90;;;;;;5039034;28;20348;-74
2021/05/02 03:46:22;;;;;;;26.45;16.40;;;8.20;99.90;;;;;;5034364;28;20236;-74
2021/05/02 03:48:51;;;;;;;25.02;16.50;;;8.20;99.90;;;;;;5038347;28;20287;-75
2021/05/02 03:51:18;;;;;;;24.85;15.52;;;8.20;99.90;;;;;;5040253;28;20194;-75
2021/05/02 03:53:44;;;;;;;23.50;16.00;;;8.30;99.90;;;;;;5034247;28;20202;-75
2021/05/02 03:56:12;;;;;;;23.13;15.25;;;8.30;99.90;;;;;;5041609;28;20202;-76
2021/05/02 03:58:38;;;;;;;23.10;14.02;;;8.30;99.90;;;;;;5041623;28;20709;-77
2021/05/02 04:01:04;;;;;;;26.17;15.73;;;8.30;99.90;;;;;;5036274;28;20218;-77
2021/05/02 04:03:31;;;;;;;23.35;14.25;;;8.30;99.90;;;;;;5032112;28;20238;-77
2021/05/02 04:05:57;;;;;;;25.23;15.55;;;8.30;99.90;;;;;;5042055;28;20466;-75
2021/05/02 04:08:23;;;;;;;27.48;16.27;;;8.40;99.90;;;;;;5033727;28;20209;-75
2021/05/02 04:10:50;;;;;;;23.05;13.00;;;8.50;99.90;;;;;;5040479;28;20213;-74
2021/05/02 04:13:17;;;;;;;23.35;13.20;;;8.60;99.90;;;;;;5032733;28;20202;-74
2021/05/02 04:15:44;;;;;;;25.27;14.98;;;8.40;99.90;;;;;;5031867;28;20207;-75
2021/05/02 04:18:10;;;;;;;19.55;13.57;;;8.30;99.90;;;;;;5031508;28;20218;-74
2021/05/02 04:20:36;;;;;;;23.13;13.63;;;8.40;99.90;;;;;;5034640;28;20198;-75
2021/05/02 04:23:03;;;;;;;23.13;13.40;;;8.40;99.90;;;;;;5038932;28;20199;-75
2021/05/02 04:25:29;;;;;;;21.98;13.98;;;8.30;99.90;;;;;;5028299;28;20226;-74
2021/05/02 04:27:56;;;;;;;23.70;14.93;;;8.30;99.90;;;;;;5034111;28;20210;-74
2021/05/02 04:30:23;;;;;;;20.90;12.73;;;8.30;99.90;;;;;;5029835;28;20199;-74
2021/05/02 04:32:50;;;;;;;21.63;13.02;;;8.30;99.90;;;;;;5039506;28;20206;-74
2021/05/02 04:35:16;;;;;;;21.23;12.60;;;8.40;99.90;;;;;;5036827;28;20203;-74
2021/05/02 04:37:43;;;;;;;21.80;12.63;;;8.40;99.90;;;;;;5042017;28;20205;-74
2021/05/02 04:40:09;;;;;;;21.65;13.95;;;8.30;99.90;;;;;;5035684;28;20202;-74
2021/05/02 04:42:36;;;;;;;20.25;12.73;;;8.30;99.90;;;;;;5039898;28;20211;-74
2021/05/02 04:45:03;;;;;;;19.45;12.93;;;8.30;99.90;;;;;;5037747;28;20222;-75
2021/05/02 04:47:30;;;;;;;18.55;11.90;;;8.30;99.90;;;;;;5027891;28;20198;-75
2021/05/02 04:49:57;;;;;;;19.92;12.20;;;8.30;99.90;;;;;;5039895;28;20264;-74
2021/05/02 04:52:23;;;;;;;18.40;12.52;;;8.40;99.90;;;;;;5038997;28;20217;-75
2021/05/02 04:54:50;;;;;;;25.38;13.63;;;8.30;99.90;;;;;;5041838;28;20228;-75
2021/05/02 04:57:16;;;;;;;16.45;11.48;;;8.30;99.90;;;;;;5039310;28;20207;-74
2021/05/02 04:59:42;;;;;;;22.48;12.27;;;8.40;99.90;;;;;;5041002;28;20208;-75
2021/05/02 05:02:09;;;;;;;18.80;11.93;;;8.30;99.90;;;;;;5033523;28;20209;-75
2021/05/02 05:04:36;;;;;;;23.17;13.43;;;8.20;99.90;;;;;;5032485;28;20241;-75
2021/05/02 05:07:03;;;;;;;18.23;11.85;;;8.20;99.90;;;;;;5043329;28;20206;-76
2021/05/02 05:09:29;;;;;;;19.30;11.30;;;8.30;99.90;;;;;;5040766;28;20206;-75
2021/05/02 05:11:55;;;;;;;23.77;12.52;;;8.40;99.90;;;;;;5039992;28;20221;-75
2021/05/02 05:14:22;;;;;;;16.60;10.63;;;8.50;99.90;;;;;;5037497;28;20214;-75
2021/05/02 05:16:48;;;;;;;20.60;10.98;;;8.40;99.90;;;;;;5029538;28;20294;-75
2021/05/02 05:19:15;;;;;;;18.83;12.10;;;8.40;99.90;;;;;;5034691;28;20214;-75
2021/05/02 05:21:42;;;;;;;17.88;9.98;;;8.30;99.90;;;;;;5026932;28;20555;-75
2021/05/02 05:24:09;;;;;;;24.60;10.65;;;8.30;99.90;;;;;;5039743;28;20267;-75
2021/05/02 05:26:35;;;;;;;19.60;11.32;;;8.30;99.90;;;;;;5036778;28;20225;-75
2021/05/02 05:29:02;;;;;;;17.48;10.85;;;8.40;99.90;;;;;;5044943;28;20254;-75
2021/05/02 05:31:29;;;;;;;16.40;10.48;;;8.50;99.90;;;;;;5033770;28;20201;-75
2021/05/02 05:33:55;;;;;;;17.08;10.45;;;8.50;99.90;;;;;;5035159;28;20210;-75
2021/05/02 05:36:22;;;;;;;15.25;8.65;;;8.50;99.90;;;;;;5040515;28;20202;-75
2021/05/02 05:38:49;;;;;;;12.50;7.93;;;8.60;99.90;;;;;;5027430;28;20209;-75
2021/05/02 05:41:15;;;;;;;13.00;7.97;;;8.50;99.90;;;;;;5040071;28;20213;-75
2021/05/02 05:43:42;;;;;;;11.10;7.82;;;8.50;99.90;;;;;;5032720;28;20228;-75
2021/05/02 05:46:13;;;;;;;12.75;8.65;;;8.50;99.90;;;;;;5034531;28;20230;-75
2021/05/02 05:48:39;;;;;;;14.57;7.90;;;8.40;99.90;;;;;;5032801;28;20282;-75
2021/05/02 05:51:07;;;;;;;12.73;6.75;;;8.40;99.90;;;;;;5035535;28;20202;-75
2021/05/02 05:53:34;;;;;;;11.68;6.45;;;8.40;99.90;;;;;;5027761;28;20203;-75
2021/05/02 05:56:01;;;;;;;11.50;7.00;;;8.50;99.90;;;;;;5044582;28;20668;-75
2021/05/02 05:58:30;;;;;;;15.88;6.45;;;8.50;99.90;;;;;;5026455;28;20221;-75
2021/05/02 06:00:56;;;;;;;13.90;5.90;;;8.60;99.90;;;;;;5031483;28;20206;-75
2021/05/02 06:03:22;;;;;;;18.70;5.95;;;8.60;99.90;;;;;;5032033;28;20228;-76
2021/05/02 06:05:49;;;;;;;10.25;6.20;;;8.60;99.90;;;;;;5031542;28;20230;-76
2021/05/02 06:08:15;;;;;;;14.60;5.65;;;8.70;99.90;;;;;;5035347;28;20202;-76
2021/05/02 06:10:42;;;;;;;10.35;5.43;;;8.70;99.90;;;;;;5036019;28;20231;-76
2021/05/02 06:13:09;;;;;;;10.05;5.32;;;8.80;99.90;;;;;;5037946;28;20207;-76
2021/05/02 06:15:36;;;;;;;10.52;5.03;;;8.80;99.90;;;;;;5034131;28;20611;-76
2021/05/02 06:18:02;;;;;;;8.75;5.30;;;8.90;99.90;;;;;;5030287;28;20302;-76
2021/05/02 06:20:29;;;;;;;11.55;4.15;;;9.00;99.90;;;;;;5054199;28;20581;-75
2021/05/02 06:22:55;;;;;;;8.32;4.00;;;9.10;99.90;;;;;;5048776;28;20204;-76
2021/05/02 06:25:22;;;;;;;4.90;3.65;;;9.10;99.90;;;;;;5058870;28;20225;-76
2021/05/02 06:27:49;;;;;;;8.85;4.82;;;9.20;99.90;;;;;;5056082;28;20205;-75
2021/05/02 06:30:18;;;;;;;11.18;4.47;;;9.20;99.90;;;;;;5058084;28;20667;-75
2021/05/02 06:32:44;;;;;;;17.30;5.85;;;9.30;99.90;;;;;;5053347;28;20214;-76
2021/05/02 06:35:11;;;;;;;7.30;4.53;;;9.30;99.90;;;;;;5059277;28;20194;-75
2021/05/02 06:37:38;;;;;;;9.15;4.80;;;9.40;99.90;;;;;;5056527;28;20193;-76
2021/05/02 06:40:05;;;;;;;14.70;4.53;;;9.50;99.90;;;;;;5053187;28;20198;-76
2021/05/02 06:42:32;;;;;;;9.30;3.72;;;9.60;99.90;;;;;;5058772;28;20205;-76
2021/05/02 06:44:58;;;;;;;12.68;5.18;;;9.80;99.90;;;;;;5052286;28;20225;-75
2021/05/02 06:47:26;;;;;;;6.85;4.47;;;9.80;99.90;;;;;;5061372;28;20201;-76
2021/05/02 06:49:52;;;;;;;9.52;4.53;;;9.90;99.90;;;;;;5055047;28;20299;-76
2021/05/02 06:52:19;;;;;;;7.90;4.05;;;10.00;99.90;;;;;;5059175;28;20198;-76
2021/05/02 06:54:45;;;;;;;8.23;3.78;;;10.10;99.90;;;;;;5057994;28;20214;-76
2021/05/02 06:57:12;;;;;;;4.57;3.55;;;10.10;99.90;;;;;;5048282;28;20699;-76
2021/05/02 06:59:38;;;;;;;7.63;3.40;;;10.20;99.90;;;;;;5058483;28;20549;-76
2021/05/02 07:02:05;;;;;;;6.70;3.17;;;10.20;99.90;;;;;;5053230;28;20209;-76
2021/05/02 07:04:34;;;;;;;5.32;3.17;;;10.30;99.90;;;;;;5048688;28;20267;-76
2021/05/02 07:07:01;;;;;;;4.80;3.10;;;10.40;99.90;;;;;;5057748;28;20288;-77
2021/05/02 07:09:27;;;;;;;4.97;3.08;;;10.50;99.90;;;;;;5058490;28;20201;-76
2021/05/02 07:11:54;;;;;;;5.75;3.22;;;10.50;99.90;;;;;;5051319;28;20698;-76
2021/05/02 07:14:20;;;;;;;7.65;2.72;;;10.50;99.90;;;;;;5058463;28;20301;-76
2021/05/02 07:16:47;;;;;;;4.70;2.70;;;10.40;99.90;;;;;;5051252;28;20217;-76
2021/05/02 07:19:13;;;;;;;7.95;3.25;;;10.20;99.90;;;;;;5051385;28;20225;-76
2021/05/02 07:21:41;;;;;;;13.55;3.88;;;10.10;99.90;;;;;;5058553;28;20276;-76
2021/05/02 07:24:09;;;;;;;8.10;3.72;;;10.20;99.90;;;;;;5055109;28;20346;-76
2021/05/02 07:26:35;;;;;;;9.40;4.20;;;10.50;99.90;;;;;;5060552;28;20229;-76
2021/05/02 07:29:02;;;;;;;8.93;3.30;;;10.70;99.90;;;;;;5057887;28;20205;-76
2021/05/02 07:31:28;;;;;;;9.60;3.92;;;10.70;99.90;;;;;;5058171;28;20216;-76
2021/05/02 07:33:54;;;;;;;11.52;4.47;;;10.80;99.90;;;;;;5064777;28;20209;-76
2021/05/02 07:36:21;;;;;;;8.75;3.88;;;10.90;99.90;;;;;;5048732;28;20202;-76
2021/05/02 07:38:48;;;;;;;12.45;4.20;;;10.80;99.90;;;;;;5049581;28;20669;-77
2021/05/02 07:41:15;;;;;;;9.13;3.60;;;10.70;99.90;;;;;;5061012;28;20216;-76
2021/05/02 07:43:41;;;;;;;7.05;3.15;;;10.80;99.90;;;;;;5053702;28;20519;-76
2021/05/02 07:46:08;;;;;;;6.40;3.33;;;11.10;99.90;;;;;;5066279;28;20229;-76
2021/05/02 07:48:35;;;;;;;6.18;2.63;;;11.30;99.90;;;;;;5053043;28;20206;-77
2021/05/02 07:51:03;;;;;;;4.47;2.75;;;11.60;99.90;;;;;;5058512;28;20212;-77
2021/05/02 07:53:29;;;;;;;3.85;2.70;;;12.00;99.90;;;;;;5054199;28;20194;-77
2021/05/02 07:55:57;;;;;;;6.18;3.50;;;12.40;99.90;;;;;;5048455;28;20281;-77
2021/05/02 07:58:23;;;;;;;5.28;3.10;;;12.50;99.90;;;;;;5060905;28;20267;-77
2021/05/02 08:00:50;;;;;;;7.55;3.25;;;12.40;99.90;;;;;;5052510;28;20197;-77
2021/05/02 08:03:16;;;;;;;5.75;3.03;;;12.30;99.90;;;;;;5059447;28;20293;-76
2021/05/02 08:05:42;;;;;;;3.28;2.97;;;12.20;99.90;;;;;;5052614;28;20263;-77
2021/05/02 08:08:09;;;;;;;10.73;3.25;;;12.20;99.90;;;;;;5062688;28;20197;-77
2021/05/02 08:10:35;;;;;;;5.80;2.80;;;12.40;99.90;;;;;;5051693;28;20947;-76
2021/05/02 08:13:03;;;;;;;6.55;2.78;;;12.40;99.90;;;;;;5046652;28;20205;-77
2021/05/02 08:15:29;;;;;;;3.38;2.50;;;12.50;99.90;;;;;;5045613;28;20220;-77
2021/05/02 08:17:57;;;;;;;9.40;2.95;;;12.80;99.90;;;;;;5058152;28;20444;-77
2021/05/02 08:20:24;;;;;;;7.88;2.97;;;13.20;99.90;;;;;;5054533;28;20197;-77
2021/05/02 08:22:50;;;;;;;6.32;3.33;;;13.60;99.90;;;;;;5056578;28;20211;-77
2021/05/02 08:25:17;;;;;;;6.35;3.80;;;13.90;99.90;;;;;;5054570;28;20221;-77
2021/05/02 08:27:44;;;;;;;6.25;3.22;;;14.10;99.90;;;;;;5055890;28;20628;-77
2021/05/02 08:30:12;;;;;;;13.13;3.97;;;14.00;99.90;;;;;;5056957;28;20197;-77
2021/05/02 08:32:39;;;;;;;5.07;4.45;;;13.70;99.90;;;;;;5048137;28;20239;-77
2021/05/02 08:35:06;;;;;;;4.60;4.18;;;13.50;99.90;;;;;;5051307;28;20214;-77
2021/05/02 08:37:33;;;;;;;6.45;3.10;;;13.30;99.90;;;;;;5060088;28;20197;-77
2021/05/02 08:40:01;;;;;;;7.40;2.47;;;13.00;99.90;;;;;;5047362;28;20211;-77
2021/05/02 08:42:27;;;;;;;10.70;2.92;;;13.00;99.90;;;;;;5059975;28;20208;-77
2021/05/02 08:44:54;;;;;;;4.85;3.08;;;13.30;99.90;;;;;;5054717;28;20227;-77
2021/05/02 08:47:21;;;;;;;5.50;2.90;;;13.90;99.90;;;;;;5061716;28;20208;-77
2021/05/02 08:49:48;;;;;;;5.80;3.25;;;14.10;99.90;;;;;;5055969;28;20204;-76
2021/05/02 08:52:14;;;;;;;4.75;3.75;;;14.00;99.90;;;;;;5049873;28;20245;-76
2021/05/02 08:54:41;;;;;;;6.47;3.85;;;13.60;99.90;;;;;;5055505;28;20206;-76
2021/05/02 08:57:07;;;;;;;5.70;3.45;;;13.30;99.90;;;;;;5053329;28;20465;-76
2021/05/02 08:59:34;;;;;;;5.60;3.03;;;13.00;99.90;;;;;;5055208;28;20636;-76
2021/05/02 09:02:01;;;;;;;6.50;4.13;;;12.80;99.90;;;;;;5049934;28;20209;-76
2021/05/02 09:04:28;;;;;;;8.20;3.35;;;12.70;99.90;;;;;;5045534;28;20245;-76
2021/05/02 09:06:55;;;;;;;3.85;3.45;;;12.90;99.90;;;;;;5040017;28;20581;-76
2021/05/02 09:09:21;;;;;;;8.75;3.75;;;13.30;99.90;;;;;;5053598;28;20202;-76
2021/05/02 09:11:49;;;;;;;6.72;3.05;;;13.70;99.90;;;;;;5037762;28;20239;-75
2021/05/02 09:14:30;;;;;;;7.55;2.70;;;13.90;99.90;;;;;;5046721;28;20270;-76
2021/05/02 09:16:58;;;;;;;4.65;2.60;;;14.00;99.90;;;;;;5048332;28;20210;-76
2021/05/02 09:19:26;;;;;;;2.83;2.63;;;13.80;99.60;;;;;;5053012;28;20269;-76
2021/05/02 09:21:54;;;;;;;4.25;2.95;;;13.60;97.60;;;;;;5056292;28;20576;-76
2021/05/02 09:24:25;;;;;;;6.75;2.65;;;13.40;96.80;;;;;;5050211;28;20207;-76
2021/05/02 09:27:06;;;;;;;5.68;2.30;;;13.20;96.60;;;;;;5060022;28;20236;-76
2021/05/02 09:29:33;;;;;;;5.38;2.72;;;13.00;96.90;;;;;;5044028;28;20203;-76
2021/05/02 09:32:00;;;;;;;10.40;2.83;;;13.10;97.10;;;;;;5045260;28;20205;-76
2021/05/02 09:34:27;;;;;;;5.57;3.15;;;13.20;96.00;;;;;;5065078;28;20205;-76
2021/05/02 09:36:57;;;;;;;6.60;2.50;;;13.10;96.30;;;;;;5049260;28;20263;-76
2021/05/02 09:39:35;;;;;;;2.25;2.05;;;13.00;96.30;;;;;;5056278;28;20207;-76
2021/05/02 09:42:07;;;;;;;4.00;2.30;;;12.80;95.80;;;;;;5050213;28;20202;-76
2021/05/02 09:44:42;;;;;;;4.97;2.15;;;12.70;97.10;;;;;;5045493;28;20210;-76
2021/05/02 09:47:28;;;;;;;4.55;2.30;;;13.20;97.10;;;;;;5053668;28;20197;-76
2021/05/02 09:50:19;;;;;;;2.45;2.15;;;13.70;96.90;;;;;;5048074;28;20199;-78
2021/05/02 09:52:52;;;;;;;4.53;1.80;;;13.90;95.60;;;;;;5043338;28;20203;-77
2021/05/02 09:55:32;;;;;;;2.50;2.30;;;14.00;94.50;;;;;;5052102;28;20236;-78
2021/05/02 09:58:07;;;;;;;2.72;1.83;;;13.80;93.90;;;;;;5043142;28;20197;-78
2021/05/02 10:00:36;;;;;;;3.70;2.30;;;13.60;94.50;;;;;;5052446;28;20201;-77
2021/05/02 10:05:35;;;;;;;5.18;2.90;;;13.30;94.10;;;;;;5092392;27;20582;-76
2021/05/02 10:08:03;;;;;;;4.07;2.40;;;13.20;95.00;;;;;;5086532;28;20201;-76
2021/05/02 10:10:30;;;;;;;3.85;2.10;;;13.70;94.70;;;;;;5082969;28;20210;-76
2021/05/02 10:12:56;;;;;;;3.65;2.20;;;14.30;93.70;;;;;;5088033;28;20260;-76
2021/05/02 10:15:24;;;;;;;2.08;1.92;;;14.80;92.80;;;;;;5089584;28;20203;-76
2021/05/02 10:17:51;;;;;;;8.13;1.77;;;15.00;92.80;;;;;;5087634;28;20263;-76
2021/05/02 10:20:19;;;;;;;3.05;2.13;;;14.90;92.80;;;;;;5082452;28;20196;-76
2021/05/02 10:22:46;;;;;;;1.70;1.60;;;14.70;92.20;;;;;;5087768;28;20220;-76
2021/05/02 10:25:14;;;;;;;5.30;2.38;;;14.50;90.30;;;;;;5084211;28;20210;-76
2021/05/02 10:27:44;;;;;;;1.50;1.40;;;14.90;90.70;;;;;;5087852;28;20202;-76
2021/05/02 10:30:11;;;;;;;13.68;2.40;;;15.40;87.20;;;;;;5082221;28;20211;-76
2021/05/02 10:32:37;;;;;;;2.90;2.58;;;15.30;86.40;;;;;;5082466;28;20287;-76
2021/05/02 10:35:09;;;;;;;2.25;2.10;;;15.00;87.90;;;;;;5088646;28;20207;-76
2021/05/02 10:37:38;;;;;;;3.33;1.85;;;14.70;86.40;;;;;;5088124;28;20211;-76
2021/05/02 10:40:10;;;;;;;2.80;2.00;;;14.40;86.60;;;;;;5082042;28;20230;-76
2021/05/02 10:42:40;;;;;;;2.13;2.00;;;14.10;86.90;;;;;;5085707;28;20205;-76
2021/05/02 10:45:41;;;;;;;6.00;2.10;;;14.00;85.70;;;;;;5089012;28;20287;-76
2021/05/02 10:48:09;;;;;;;2.17;2.00;;;13.80;86.80;;;;;;5084853;28;20211;-76
2021/05/02 10:50:37;;;;;;;4.07;2.38;;;13.50;87.40;;;;;;5081294;28;20208;-76
2021/05/02 10:53:08;;;;;;;8.90;2.40;;;13.30;88.10;;;;;;5084796;28;20214;-76
2021/05/02 10:55:47;;;;;;;2.00;1.83;;;13.20;89.30;;;;;;5084364;28;20216;-76
2021/05/02 10:58:26;;;;;;;2.45;1.75;;;13.10;89.00;;;;;;5093183;28;20204;-76
2021/05/02 11:00:56;;;;;;;2.10;1.60;;;13.00;89.00;;;;;;5103085;28;20208;-76
2021/05/02 11:03:52;;;;;;;2.67;1.60;;;13.00;89.70;;;;;;5081803;28;20239;-76
2021/05/02 11:06:51;;;;;;;1.65;1.48;;;13.10;90.10;;;;;;5082077;28;20197;-76
2021/05/02 11:09:19;;;;;;;1.98;1.88;;;13.30;84.20;;;;;;5078766;28;21290;-75
2021/05/02 11:11:47;;;;;;;8.25;1.98;;;13.70;84.30;;;;;;5085502;28;20206;-76
2021/05/02 11:14:36;;;;;;;8.48;1.70;;;13.70;84.50;;;;;;5085087;28;20209;-76
2021/05/02 11:17:30;;;;;;;5.45;1.80;;;13.70;84.90;;;;;;5071632;28;20960;-76
2021/05/02 11:19:59;;;;;;;2.88;1.95;;;13.70;86.30;;;;;;5072477;28;20266;-76
2021/05/02 11:22:26;;;;;;;2.78;2.00;;;13.80;87.40;;;;;;5073934;28;20237;-76
2021/05/02 11:25:12;;;;;;;5.22;1.80;;;13.80;88.00;;;;;;5076865;28;20202;-75
2021/05/02 11:30:31;;;;;;;3.40;1.65;;;13.60;88.30;;;;;;5069651;28;20250;-76
2021/05/02 11:32:59;;;;;;;1.45;1.23;;;13.70;87.40;;;;;;5073463;28;20979;-76
2021/05/02 11:35:52;;;;;;;2.28;1.85;;;13.70;87.50;;;;;;5070311;28;20486;-76
2021/05/02 11:38:47;;;;;;;2.00;1.90;;;13.60;88.40;;;;;;5074323;28;20206;-76
2021/05/02 11:41:13;;;;;;;2.10;1.75;;;13.70;88.90;;;;;;5069588;28;20207;-76
2021/05/02 11:43:41;;;;;;;2.17;2.08;;;13.70;89.00;;;;;;5073575;28;20317;-76
2021/05/02 11:46:18;;;;;;;2.35;1.83;;;13.60;87.50;;;;;;5074694;28;20257;-76
2021/05/02 11:48:46;;;;;;;1.77;1.67;;;13.60;87.30;;;;;;5073873;28;20280;-75
2021/05/02 11:51:23;;;;;;;4.45;1.60;;;13.40;86.30;;;;;;5076037;28;20204;-76
2021/05/02 11:53:51;;;;;;;3.10;2.53;;;13.30;86.40;;;;;;5070733;28;20209;-76
2021/05/02 11:56:28;;;;;;;8.45;2.47;;;13.30;88.20;;;;;;5073044;28;20205;-76
2021/05/02 11:58:56;;;;;;;5.53;2.58;;;13.30;88.70;;;;;;5070620;28;21468;-76
2021/05/02 12:01:25;;;;;;;3.15;2.25;;;13.40;88.90;;;;;;5072768;28;20203;-76
2021/05/02 12:03:52;;;;;;;2.35;1.80;;;13.40;88.30;;;;;;5068889;28;20251;-76
2021/05/02 12:06:30;;;;;;;2.83;1.83;;;13.30;89.10;;;;;;5068239;28;20210;-76
2021/05/02 12:08:57;;;;;;;2.47;2.28;;;13.30;87.90;;;;;;5067886;28;20208;-75
2021/05/02 12:11:26;;;;;;;7.28;2.95;;;13.30;88.00;;;;;;5069439;28;20214;-76
2021/05/02 12:13:54;;;;;;;3.42;2.95;;;13.40;89.40;;;;;;5072084;28;20206;-75
2021/05/02 12:16:22;;;;;;;6.68;2.28;;;13.60;87.70;;;;;;5071533;28;20213;-75
2021/05/02 12:19:08;;;;;;;5.93;2.15;;;13.60;88.00;;;;;;5073530;28;20745;-77
2021/05/02 12:21:36;;;;;;;2.25;1.75;;;13.70;86.40;;;;;;5076125;28;20194;-77
2021/05/02 12:24:08;;;;;;;2.20;2.10;;;13.70;82.80;;;;;;5072288;28;20247;-78
2021/05/02 12:26:41;;;;;;;5.25;2.10;;;13.60;82.70;;;;;;5073372;28;20207;-78
2021/05/02 12:34:49;;;;;;;2.83;2.50;;;13.70;82.60;;;;;;5071660;28;20223;-77
2021/05/02 12:37:17;;;;;;;4.40;2.40;;;13.70;81.30;;;;;;5077980;28;20220;-77
2021/05/02 12:42:38;;;;;;;5.47;2.00;;;13.50;83.20;;;;;;5076826;28;20204;-77
2021/05/02 12:45:09;;;;;;;2.25;1.42;;;13.50;84.10;;;;;;5070834;28;20663;-76
2021/05/02 12:47:40;;;;;;;2.70;2.17;;;13.50;83.10;;;;;;5068032;28;20216;-76
2021/05/02 12:50:10;;;;;;;2.55;2.20;;;13.40;83.20;;;;;;5066054;28;20230;-76
2021/05/02 12:52:38;;;;;;;2.92;2.03;;;13.30;84.90;;;;;;5071561;28;20202;-76
2021/05/02 12:55:22;;;;;;;3.85;2.40;;;13.20;86.20;;;;;;5071229;28;20216;-76
2021/05/02 12:57:49;;;;;;;2.70;2.50;;;13.10;86.10;;;;;;5067766;28;20267;-75
2021/05/02 13:00:19;;;;;;;8.77;2.78;;;13.00;87.10;;;;;;5070313;28;20205;-76
2021/05/02 13:02:46;;;;;;;2.58;2.38;;;12.90;88.20;;;;;;5066965;28;20252;-76
2021/05/02 13:05:16;;;;;;;4.45;3.95;;;12.80;90.00;;;;;;5068873;28;20208;-76